LFLH

Chalon-Champforgeuil Airport

Airport
ICAO code
LFLH
IATA Code
XCD
Summary
ICAO Region
EUR
ICAO Territory
Location

, Bourgogne

Serving
Chalon
Elevation
623 ft
Coordinates
46° 49' 34" N , 4° 49' 3" E
Metar
LFLH 200930Z AUTO 33005KT 9999 FEW032 SCT048 09/06 Q1033

Runways

Designator Length Width Surface Rops
17/35 1440 30 ASP No/No

Airport map

Aerial View

SKYbrary Partners:

Safety knowledge contributed by: